createdAt,value
2018-02-12T00:02:48.572Z," 1004"
2018-02-12T00:07:38.658Z," 1004"
2018-02-12T00:12:30.831Z," 1004"
2018-02-12T00:17:21.954Z," 1004"
2018-02-12T00:22:11.928Z," 1004"
2018-02-12T00:27:02.869Z," 1005"
2018-02-12T00:31:54.858Z," 1005"
2018-02-12T00:36:45.090Z," 1005"
2018-02-12T00:41:35.970Z," 1005"
2018-02-12T00:46:26.615Z," 1005"
2018-02-12T00:51:17.445Z," 1005"
2018-02-12T00:56:08.312Z," 1005"
2018-02-12T01:00:59.411Z," 1005"
2018-02-12T01:05:51.359Z," 1005"
2018-02-12T01:25:20.943Z," 1005"
2018-02-12T01:30:11.696Z," 1005"
2018-02-12T01:35:03.685Z," 1005"
2018-02-12T01:39:53.605Z," 1005"
2018-02-12T01:44:44.407Z," 1005"
2018-02-12T01:49:35.102Z," 1005"
2018-02-12T01:54:25.892Z," 1005"
2018-02-12T01:59:16.943Z," 1005"
2018-02-12T02:04:08.904Z," 1005"
2018-02-12T02:08:59.098Z," 1005"
2018-02-12T02:13:51.138Z," 1005"
2018-02-12T02:18:41.201Z," 1005"
2018-02-12T02:23:32.964Z," 1005"
2018-02-12T02:28:23.900Z," 1005"
2018-02-12T02:33:14.868Z," 1005"
2018-02-12T02:38:05.085Z," 1006"
2018-02-12T02:42:55.865Z," 1005"
2018-02-12T02:47:46.796Z," 1006"
2018-02-12T02:52:37.675Z," 1006"
2018-02-12T02:57:29.735Z," 1005"
2018-02-12T03:02:20.073Z," 1006"
2018-02-12T03:07:11.087Z," 1006"
2018-02-12T03:12:03.088Z," 1006"
2018-02-12T03:16:53.357Z," 1006"
2018-02-12T03:21:44.326Z," 1006"
2018-02-12T03:26:35.334Z," 1006"
2018-02-12T03:31:27.311Z," 1006"
2018-02-12T03:36:17.603Z," 1006"
2018-02-12T03:41:08.344Z," 1006"
2018-02-12T03:45:59.098Z," 1006"
2018-02-12T03:50:52.172Z," 1006"
2018-02-12T03:55:41.589Z," 1006"
2018-02-12T04:00:32.557Z," 1006"
2018-02-12T04:05:24.549Z," 1006"
2018-02-12T04:10:14.503Z," 1006"
2018-02-12T04:15:05.433Z," 1006"
2018-02-12T04:19:56.481Z," 1006"
2018-02-12T04:24:48.425Z," 1007"
2018-02-12T04:29:38.295Z," 1007"
2018-02-12T04:34:29.443Z," 1007"
2018-02-12T04:39:21.250Z," 1007"
2018-02-12T04:44:11.317Z," 1007"
2018-02-12T04:49:02.097Z," 1007"
2018-02-12T04:53:52.925Z," 1007"
2018-02-12T04:58:43.856Z," 1007"
2018-02-12T05:03:34.794Z," 1007"
2018-02-12T05:08:26.788Z," 1007"
2018-02-12T05:13:17.051Z," 1007"
2018-02-12T05:18:09.629Z," 1007"
2018-02-12T05:22:59.385Z," 1007"
2018-02-12T05:27:50.079Z," 1007"
2018-02-12T05:32:41.098Z," 1007"
2018-02-12T05:37:32.033Z," 1007"
2018-02-12T05:42:23.030Z," 1007"
2018-02-12T05:47:13.937Z," 1007"
2018-02-12T05:52:04.971Z," 1007"
2018-02-12T05:56:55.840Z," 1007"
2018-02-12T06:01:47.834Z," 1007"
2018-02-12T06:06:38.875Z," 1008"
2018-02-12T06:11:29.732Z," 1008"
2018-02-12T06:16:20.723Z," 1008"
2018-02-12T06:21:10.783Z," 1008"
2018-02-12T06:26:02.697Z," 1008"
2018-02-12T06:30:52.730Z," 1008"
2018-02-12T06:35:43.542Z," 1008"
2018-02-12T06:40:34.559Z," 1008"
2018-02-12T06:45:25.311Z," 1008"
2018-02-12T06:50:16.436Z," 1008"
2018-02-12T06:55:07.391Z," 1008"
2018-02-12T07:00:00.064Z," 1008"
2018-02-12T07:04:51.372Z," 1008"
2018-02-12T07:09:40.650Z," 1008"
2018-02-12T07:14:31.367Z," 1009"
2018-02-12T07:19:22.505Z," 1009"
2018-02-12T07:24:14.972Z," 1009"
2018-02-12T07:29:04.646Z," 1009"
2018-02-12T07:33:55.473Z," 1009"
2018-02-12T07:38:47.367Z," 1009"
2018-02-12T07:43:37.585Z," 1009"
2018-02-12T07:48:28.554Z," 1009"
2018-02-12T07:53:19.274Z," 1009"
2018-02-12T07:58:10.102Z," 1009"
2018-02-12T08:03:00.978Z," 1009"
2018-02-12T08:07:51.785Z," 1009"
2018-02-12T08:12:42.628Z," 1009"
2018-02-12T08:17:33.757Z," 1009"
2018-02-12T08:22:26.314Z," 1009"
2018-02-12T08:27:16.906Z," 1009"
2018-02-12T08:32:07.413Z," 1010"
2018-02-12T08:36:58.913Z," 1010"
2018-02-12T08:41:49.754Z," 1010"
2018-02-12T08:46:39.947Z," 1010"
2018-02-12T08:51:36.417Z," 1010"
2018-02-12T08:56:25.657Z," 1010"
2018-02-12T09:01:17.281Z," 1010"
2018-02-12T09:06:08.706Z," 1010"
2018-02-12T09:10:58.536Z," 1010"
2018-02-12T09:15:49.157Z," 1010"
2018-02-12T09:20:40.314Z," 1010"
2018-02-12T09:25:31.155Z," 1010"
2018-02-12T09:30:22.175Z," 1010"
2018-02-12T09:35:12.991Z," 1010"
2018-02-12T09:40:04.004Z," 1010"
2018-02-12T09:44:56.927Z," 1011"
2018-02-12T09:49:51.508Z," 1011"
2018-02-12T09:54:40.790Z," 1011"
2018-02-12T09:59:30.469Z," 1011"
2018-02-12T10:04:22.482Z," 1011"
2018-02-12T10:09:14.307Z," 1011"
2018-02-12T10:14:05.627Z," 1011"
2018-02-12T10:18:56.454Z," 1011"
2018-02-12T10:23:47.468Z," 1011"
2018-02-12T10:28:37.617Z," 1011"
2018-02-12T10:33:28.703Z," 1011"
2018-02-12T10:38:21.111Z," 1011"
2018-02-12T10:43:10.871Z," 1011"
2018-02-12T10:48:01.596Z," 1011"
2018-02-12T10:52:52.459Z," 1011"
2018-02-12T10:57:44.383Z," 1011"
2018-02-12T11:02:34.341Z," 1011"
2018-02-12T11:07:25.154Z," 1011"
2018-02-12T11:12:16.002Z," 1011"
2018-02-12T11:17:06.952Z," 1011"
2018-02-12T11:21:58.880Z," 1011"
2018-02-12T11:26:48.990Z," 1011"
2018-02-12T11:31:39.970Z," 1011"
2018-02-12T11:36:30.948Z," 1012"
2018-02-12T11:41:21.832Z," 1012"
2018-02-12T11:46:12.844Z," 1012"
2018-02-12T11:51:03.755Z," 1012"
2018-02-12T11:55:54.851Z," 1012"
2018-02-12T12:00:45.978Z," 1012"
2018-02-12T12:05:36.995Z," 1012"
2018-02-12T12:10:27.853Z," 1012"
2018-02-12T12:15:18.702Z," 1012"
2018-02-12T12:20:11.539Z," 1012"
2018-02-12T12:25:03.187Z," 1012"
2018-02-12T12:29:52.931Z," 1012"
2018-02-12T12:34:45.373Z," 1012"
2018-02-12T12:39:34.988Z," 1012"
2018-02-12T12:44:25.898Z," 1012"
2018-02-12T12:49:16.914Z," 1012"
2018-02-12T12:54:07.639Z," 1012"
2018-02-12T12:58:58.344Z," 1012"
2018-02-12T13:03:49.199Z," 1012"
2018-02-12T13:08:40.407Z," 1012"
2018-02-12T13:13:31.138Z," 1012"
2018-02-12T13:18:21.994Z," 1012"
2018-02-12T13:23:14.538Z," 1012"
2018-02-12T13:28:04.208Z," 1012"
2018-02-12T13:32:55.036Z," 1012"
2018-02-12T13:37:46.004Z," 1012"
2018-02-12T13:42:36.898Z," 1012"
2018-02-12T13:47:27.827Z," 1012"
2018-02-12T13:52:18.726Z," 1012"
2018-02-12T13:57:09.506Z," 1012"
2018-02-12T14:02:02.138Z," 1012"
2018-02-12T14:06:51.587Z," 1012"
2018-02-12T14:11:42.405Z," 1012"
2018-02-12T14:16:33.418Z," 1012"
2018-02-12T14:21:24.283Z," 1012"
2018-02-12T14:26:15.282Z," 1012"
2018-02-12T14:31:06.136Z," 1012"
2018-02-12T14:35:57.086Z," 1012"
2018-02-12T14:40:48.075Z," 1012"
2018-02-12T14:45:40.647Z," 1013"
2018-02-12T14:50:30.475Z," 1013"
2018-02-12T14:55:21.165Z," 1012"
2018-02-12T15:00:12.248Z," 1012"
2018-02-12T15:05:03.185Z," 1012"
2018-02-12T15:09:54.228Z," 1012"
2018-02-12T15:14:50.847Z," 1012"
2018-02-12T15:19:40.703Z," 1012"
2018-02-12T15:24:32.082Z," 1012"
2018-02-12T15:29:22.694Z," 1012"
2018-02-12T15:34:13.608Z," 1012"
2018-02-12T15:39:04.585Z," 1013"
2018-02-12T15:43:55.780Z," 1013"
2018-02-12T15:48:47.711Z," 1013"
2018-02-12T15:53:38.434Z," 1013"
2018-02-12T15:58:29.493Z," 1013"
2018-02-12T16:03:19.685Z," 1013"
2018-02-12T16:08:11.671Z," 1013"
2018-02-12T16:13:01.814Z," 1013"
2018-02-12T16:17:54.277Z," 1013"
2018-02-12T16:22:45.616Z," 1013"
2018-02-12T16:27:35.120Z," 1013"
2018-02-12T16:32:26.974Z," 1013"
2018-02-12T16:37:17.243Z," 1013"
2018-02-12T16:42:09.829Z," 1013"
2018-02-12T16:47:04.950Z," 1013"
2018-02-12T16:51:53.122Z," 1013"
2018-02-12T16:56:44.037Z," 1013"
2018-02-12T17:01:36.609Z," 1013"
2018-02-12T17:06:31.803Z," 1013"
2018-02-12T17:11:25.481Z," 1013"
2018-02-12T17:16:14.555Z," 1013"
2018-02-12T17:21:04.697Z," 1013"
2018-02-12T17:26:01.423Z," 1013"
2018-02-12T17:30:50.603Z," 1013"
2018-02-12T17:35:41.754Z," 1013"
2018-02-12T17:40:31.899Z," 1013"
2018-02-12T17:45:24.791Z," 1013"
2018-02-12T17:50:16.169Z," 1013"
2018-02-12T17:55:08.246Z," 1013"
2018-02-12T17:59:58.470Z," 1013"
2018-02-12T18:04:48.590Z," 1013"
2018-02-12T18:09:40.465Z," 1013"
2018-02-12T18:14:32.108Z," 1013"
2018-02-12T18:19:24.582Z," 1013"
2018-02-12T18:24:15.297Z," 1013"
2018-02-12T18:29:06.769Z," 1013"
2018-02-12T18:33:57.947Z," 1013"
2018-02-12T18:38:48.577Z," 1013"
2018-02-12T18:43:39.434Z," 1013"
2018-02-12T18:48:29.435Z," 1013"
2018-02-12T18:53:22.108Z," 1013"
2018-02-12T18:58:14.542Z," 1013"
2018-02-12T19:03:04.700Z," 1013"
2018-02-12T19:07:54.971Z," 1013"
2018-02-12T19:12:50.882Z," 1014"
2018-02-12T19:17:41.804Z," 1013"
2018-02-12T19:22:36.707Z," 1014"
2018-02-12T19:27:24.721Z," 1014"
2018-02-12T19:32:15.490Z," 1013"
2018-02-12T19:37:06.375Z," 1014"
2018-02-12T19:41:57.290Z," 1014"
2018-02-12T19:46:48.339Z," 1014"
2018-02-12T19:51:39.347Z," 1014"
2018-02-12T19:56:30.279Z," 1014"
2018-02-12T20:01:21.277Z," 1014"
2018-02-12T20:06:12.162Z," 1014"
2018-02-12T20:11:03.203Z," 1014"
2018-02-12T20:15:54.144Z," 1014"
2018-02-12T20:20:45.372Z," 1014"
2018-02-12T20:25:36.359Z," 1014"
2018-02-12T20:30:27.135Z," 1014"
2018-02-12T20:35:17.958Z," 1014"
2018-02-12T20:40:08.968Z," 1014"
2018-02-12T20:44:59.909Z," 1014"
2018-02-12T20:49:51.099Z," 1014"
2018-02-12T20:54:42.145Z," 1014"
2018-02-12T20:59:32.989Z," 1014"
2018-02-12T21:04:23.892Z," 1014"
2018-02-12T21:09:15.622Z," 1014"
2018-02-12T21:14:05.524Z," 1014"
2018-02-12T21:18:58.360Z," 1014"
2018-02-12T21:23:47.893Z," 1014"
2018-02-12T21:28:40.752Z," 1014"
2018-02-12T21:33:31.236Z," 1014"
2018-02-12T21:38:21.305Z," 1014"
2018-02-12T21:43:13.294Z," 1014"
2018-02-12T21:48:04.338Z," 1014"
2018-02-12T21:52:54.496Z," 1014"
2018-02-12T21:57:46.499Z," 1014"
2018-02-12T22:02:36.457Z," 1014"
2018-02-12T22:07:29.189Z," 1014"
2018-02-12T22:12:20.409Z," 1014"
2018-02-12T22:17:11.141Z," 1014"
2018-02-12T22:22:01.243Z," 1014"
2018-02-12T22:26:52.149Z," 1014"
2018-02-12T22:31:43.162Z," 1014"
2018-02-12T22:36:34.030Z," 1014"
2018-02-12T22:41:24.929Z," 1014"
2018-02-12T22:46:15.848Z," 1014"
2018-02-12T22:51:06.814Z," 1014"
2018-02-12T22:55:58.845Z," 1014"
2018-02-12T23:00:49.177Z," 1014"
2018-02-12T23:05:41.164Z," 1014"
2018-02-12T23:10:31.258Z," 1014"
2018-02-12T23:15:22.284Z," 1014"
2018-02-12T23:20:13.074Z," 1014"
2018-02-12T23:25:04.970Z," 1014"
2018-02-12T23:29:55.205Z," 1014"
2018-02-12T23:34:47.929Z," 1014"
2018-02-12T23:39:37.504Z," 1014"
2018-02-12T23:44:28.460Z," 1014"
2018-02-12T23:49:19.307Z," 1014"
2018-02-12T23:54:10.171Z," 1014"
2018-02-12T23:59:00.953Z," 1014"
